sensor_id;sensor_type;location;lat;lon;timestamp;pressure;altitude;pressure_sealevel;temperature;humidity
12879;BME280;20617;49.476;10.986;2023-01-09T00:01:57;96758.69;;;6.96;100.00
12879;BME280;20617;49.476;10.986;2023-01-09T00:04:03;96750.84;;;6.97;100.00
12879;BME280;20617;49.476;10.986;2023-01-09T00:06:08;96760.47;;;6.95;100.00
12879;BME280;20617;49.476;10.986;2023-01-09T00:08:13;96758.59;;;6.97;100.00
12879;BME280;20617;49.476;10.986;2023-01-09T00:10:19;96754.34;;;6.96;100.00
12879;BME280;20617;49.476;10.986;2023-01-09T00:12:28;96752.09;;;6.90;100.00
12879;BME280;20617;49.476;10.986;2023-01-09T00:14:35;96746.91;;;6.90;100.00
12879;BME280;20617;49.476;10.986;2023-01-09T00:16:40;96742.50;;;6.92;100.00
12879;BME280;20617;49.476;10.986;2023-01-09T00:18:45;96733.88;;;6.92;100.00
12879;BME280;20617;49.476;10.986;2023-01-09T00:20:50;96740.75;;;6.93;100.00
12879;BME280;20617;49.476;10.986;2023-01-09T00:22:55;96732.38;;;6.88;100.00
12879;BME280;20617;49.476;10.986;2023-01-09T00:25:00;96731.31;;;6.92;100.00
12879;BME280;20617;49.476;10.986;2023-01-09T00:27:04;96732.06;;;6.94;100.00
12879;BME280;20617;49.476;10.986;2023-01-09T00:29:09;96733.66;;;6.96;100.00
12879;BME280;20617;49.476;10.986;2023-01-09T00:31:19;96733.41;;;7.01;100.00
12879;BME280;20617;49.476;10.986;2023-01-09T00:33:26;96720.72;;;6.96;100.00
12879;BME280;20617;49.476;10.986;2023-01-09T00:35:32;96724.25;;;6.95;100.00
12879;BME280;20617;49.476;10.986;2023-01-09T00:37:37;96725.06;;;6.96;100.00
12879;BME280;20617;49.476;10.986;2023-01-09T00:39:42;96712.53;;;6.88;100.00
12879;BME280;20617;49.476;10.986;2023-01-09T00:41:49;96708.03;;;6.92;100.00
12879;BME280;20617;49.476;10.986;2023-01-09T00:43:57;96718.31;;;6.93;100.00
12879;BME280;20617;49.476;10.986;2023-01-09T00:46:05;96711.22;;;6.97;100.00
12879;BME280;20617;49.476;10.986;2023-01-09T00:48:15;96706.63;;;7.02;100.00
12879;BME280;20617;49.476;10.986;2023-01-09T00:50:28;96702.13;;;7.06;100.00
12879;BME280;20617;49.476;10.986;2023-01-09T00:52:35;96689.19;;;7.06;100.00
12879;BME280;20617;49.476;10.986;2023-01-09T00:54:43;96693.59;;;7.03;100.00
12879;BME280;20617;49.476;10.986;2023-01-09T00:56:48;96697.13;;;7.02;100.00
12879;BME280;20617;49.476;10.986;2023-01-09T00:58:53;96684.50;;;6.96;100.00
12879;BME280;20617;49.476;10.986;2023-01-09T01:00:58;96688.25;;;6.91;100.00
12879;BME280;20617;49.476;10.986;2023-01-09T01:03:03;96692.81;;;6.86;100.00
12879;BME280;20617;49.476;10.986;2023-01-09T01:05:11;96686.97;;;6.82;100.00
12879;BME280;20617;49.476;10.986;2023-01-09T01:07:28;96701.91;;;6.77;100.00
12879;BME280;20617;49.476;10.986;2023-01-09T01:09:39;96704.31;;;6.80;100.00
12879;BME280;20617;49.476;10.986;2023-01-09T01:11:44;96702.66;;;6.79;100.00
12879;BME280;20617;49.476;10.986;2023-01-09T01:13:51;96695.56;;;6.83;100.00
12879;BME280;20617;49.476;10.986;2023-01-09T01:15:56;96695.50;;;6.84;100.00
12879;BME280;20617;49.476;10.986;2023-01-09T01:18:01;96695.84;;;6.78;100.00
12879;BME280;20617;49.476;10.986;2023-01-09T01:20:08;96691.31;;;6.82;100.00
12879;BME280;20617;49.476;10.986;2023-01-09T01:22:16;96686.97;;;6.82;100.00
12879;BME280;20617;49.476;10.986;2023-01-09T01:24:21;96687.97;;;6.79;100.00
12879;BME280;20617;49.476;10.986;2023-01-09T01:26:26;96687.59;;;6.87;100.00
12879;BME280;20617;49.476;10.986;2023-01-09T01:28:31;96686.75;;;6.87;100.00
12879;BME280;20617;49.476;10.986;2023-01-09T01:30:36;96688.31;;;6.89;100.00
12879;BME280;20617;49.476;10.986;2023-01-09T01:32:42;96688.47;;;6.86;100.00
12879;BME280;20617;49.476;10.986;2023-01-09T01:34:48;96687.75;;;6.84;100.00
12879;BME280;20617;49.476;10.986;2023-01-09T01:36:52;96688.75;;;6.82;100.00
12879;BME280;20617;49.476;10.986;2023-01-09T01:39:00;96682.81;;;6.79;100.00
12879;BME280;20617;49.476;10.986;2023-01-09T01:41:05;96679.28;;;6.80;100.00
12879;BME280;20617;49.476;10.986;2023-01-09T01:43:11;96685.31;;;6.81;100.00
12879;BME280;20617;49.476;10.986;2023-01-09T01:45:17;96678.94;;;6.71;100.00
12879;BME280;20617;49.476;10.986;2023-01-09T01:47:28;96680.75;;;6.69;100.00
12879;BME280;20617;49.476;10.986;2023-01-09T01:49:34;96672.78;;;6.73;100.00
12879;BME280;20617;49.476;10.986;2023-01-09T01:51:42;96661.09;;;6.66;100.00
12879;BME280;20617;49.476;10.986;2023-01-09T01:53:51;96663.75;;;6.65;100.00
12879;BME280;20617;49.476;10.986;2023-01-09T01:56:03;96661.00;;;6.68;100.00
12879;BME280;20617;49.476;10.986;2023-01-09T01:58:13;96653.25;;;6.68;100.00
12879;BME280;20617;49.476;10.986;2023-01-09T02:00:21;96657.25;;;6.73;100.00
12879;BME280;20617;49.476;10.986;2023-01-09T02:02:29;96658.94;;;6.74;100.00
12879;BME280;20617;49.476;10.986;2023-01-09T02:04:37;96656.50;;;6.71;100.00
12879;BME280;20617;49.476;10.986;2023-01-09T02:06:46;96655.59;;;6.72;100.00
12879;BME280;20617;49.476;10.986;2023-01-09T02:08:54;96665.53;;;6.80;100.00
12879;BME280;20617;49.476;10.986;2023-01-09T02:11:03;96653.59;;;6.77;100.00
12879;BME280;20617;49.476;10.986;2023-01-09T02:13:08;96657.88;;;6.78;100.00
12879;BME280;20617;49.476;10.986;2023-01-09T02:15:14;96643.19;;;6.79;100.00
12879;BME280;20617;49.476;10.986;2023-01-09T02:17:36;96632.66;;;6.82;100.00
12879;BME280;20617;49.476;10.986;2023-01-09T02:22:39;96647.19;;;6.85;100.00
12879;BME280;20617;49.476;10.986;2023-01-09T02:25:15;96627.00;;;6.91;100.00
12879;BME280;20617;49.476;10.986;2023-01-09T02:27:43;96617.91;;;6.84;100.00
12879;BME280;20617;49.476;10.986;2023-01-09T02:30:25;96620.50;;;6.84;100.00
12879;BME280;20617;49.476;10.986;2023-01-09T02:32:44;96617.00;;;6.85;100.00
12879;BME280;20617;49.476;10.986;2023-01-09T02:34:59;96609.41;;;6.82;100.00
12879;BME280;20617;49.476;10.986;2023-01-09T02:37:07;96602.03;;;6.74;100.00
12879;BME280;20617;49.476;10.986;2023-01-09T02:39:20;96606.22;;;6.77;100.00
12879;BME280;20617;49.476;10.986;2023-01-09T02:41:31;96601.88;;;6.77;100.00
12879;BME280;20617;49.476;10.986;2023-01-09T02:43:39;96590.38;;;6.83;100.00
12879;BME280;20617;49.476;10.986;2023-01-09T02:45:47;96592.22;;;6.81;100.00
12879;BME280;20617;49.476;10.986;2023-01-09T02:47:52;96599.66;;;6.87;100.00
12879;BME280;20617;49.476;10.986;2023-01-09T02:49:58;96605.16;;;6.97;100.00
12879;BME280;20617;49.476;10.986;2023-01-09T02:52:18;96592.69;;;7.03;100.00
12879;BME280;20617;49.476;10.986;2023-01-09T02:54:38;96578.28;;;6.99;100.00
12879;BME280;20617;49.476;10.986;2023-01-09T02:57:13;96579.22;;;6.98;100.00
12879;BME280;20617;49.476;10.986;2023-01-09T02:59:24;96580.44;;;6.91;100.00
12879;BME280;20617;49.476;10.986;2023-01-09T03:01:41;96587.22;;;6.94;100.00
12879;BME280;20617;49.476;10.986;2023-01-09T03:03:59;96568.34;;;6.92;100.00
12879;BME280;20617;49.476;10.986;2023-01-09T03:06:10;96576.03;;;6.93;100.00
12879;BME280;20617;49.476;10.986;2023-01-09T03:08:18;96577.53;;;6.97;100.00
12879;BME280;20617;49.476;10.986;2023-01-09T03:10:29;96578.28;;;6.99;100.00
12879;BME280;20617;49.476;10.986;2023-01-09T03:12:37;96584.88;;;7.05;100.00
12879;BME280;20617;49.476;10.986;2023-01-09T03:14:47;96598.41;;;7.10;100.00
12879;BME280;20617;49.476;10.986;2023-01-09T03:16:57;96595.53;;;7.15;100.00
12879;BME280;20617;49.476;10.986;2023-01-09T03:19:06;96585.03;;;7.18;100.00
12879;BME280;20617;49.476;10.986;2023-01-09T03:21:13;96584.03;;;7.20;100.00
12879;BME280;20617;49.476;10.986;2023-01-09T03:23:18;96574.44;;;7.22;100.00
12879;BME280;20617;49.476;10.986;2023-01-09T03:25:25;96587.19;;;7.25;100.00
12879;BME280;20617;49.476;10.986;2023-01-09T03:27:31;96592.63;;;7.21;100.00
12879;BME280;20617;49.476;10.986;2023-01-09T03:29:36;96588.53;;;7.17;100.00
12879;BME280;20617;49.476;10.986;2023-01-09T03:31:41;96585.03;;;7.18;100.00
12879;BME280;20617;49.476;10.986;2023-01-09T03:33:48;96585.72;;;7.21;100.00
12879;BME280;20617;49.476;10.986;2023-01-09T03:35:53;96590.78;;;7.23;100.00
12879;BME280;20617;49.476;10.986;2023-01-09T03:37:58;96593.31;;;7.24;100.00
12879;BME280;20617;49.476;10.986;2023-01-09T03:40:04;96591.88;;;7.19;100.00
12879;BME280;20617;49.476;10.986;2023-01-09T03:42:09;96598.72;;;7.20;100.00
12879;BME280;20617;49.476;10.986;2023-01-09T03:44:14;96595.31;;;7.19;100.00
12879;BME280;20617;49.476;10.986;2023-01-09T03:46:19;96597.97;;;7.18;100.00
12879;BME280;20617;49.476;10.986;2023-01-09T03:48:23;96592.94;;;7.15;100.00
12879;BME280;20617;49.476;10.986;2023-01-09T03:50:31;96596.31;;;7.17;100.00
12879;BME280;20617;49.476;10.986;2023-01-09T03:52:36;96599.81;;;7.16;100.00
12879;BME280;20617;49.476;10.986;2023-01-09T03:54:41;96607.66;;;7.14;100.00
12879;BME280;20617;49.476;10.986;2023-01-09T03:56:45;96612.94;;;7.13;100.00
12879;BME280;20617;49.476;10.986;2023-01-09T03:58:51;96612.06;;;7.12;100.00
12879;BME280;20617;49.476;10.986;2023-01-09T04:01:00;96604.41;;;7.11;100.00
12879;BME280;20617;49.476;10.986;2023-01-09T04:03:05;96609.00;;;7.06;100.00
12879;BME280;20617;49.476;10.986;2023-01-09T04:05:10;96609.09;;;7.04;100.00
12879;BME280;20617;49.476;10.986;2023-01-09T04:07:17;96607.41;;;7.03;100.00
12879;BME280;20617;49.476;10.986;2023-01-09T04:09:22;96607.41;;;7.03;100.00
12879;BME280;20617;49.476;10.986;2023-01-09T04:11:27;96599.91;;;6.98;100.00
12879;BME280;20617;49.476;10.986;2023-01-09T04:13:32;96614.31;;;7.02;100.00
12879;BME280;20617;49.476;10.986;2023-01-09T04:15:36;96619.66;;;6.99;100.00
12879;BME280;20617;49.476;10.986;2023-01-09T04:17:41;96620.59;;;6.98;100.00
12879;BME280;20617;49.476;10.986;2023-01-09T04:19:46;96625.44;;;7.05;100.00
12879;BME280;20617;49.476;10.986;2023-01-09T04:21:51;96624.69;;;7.02;100.00
12879;BME280;20617;49.476;10.986;2023-01-09T04:23:59;96622.09;;;7.02;100.00
12879;BME280;20617;49.476;10.986;2023-01-09T04:26:07;96621.00;;;7.07;100.00
12879;BME280;20617;49.476;10.986;2023-01-09T04:28:11;96621.84;;;7.07;100.00
12879;BME280;20617;49.476;10.986;2023-01-09T04:30:16;96629.03;;;7.02;100.00
12879;BME280;20617;49.476;10.986;2023-01-09T04:32:21;96633.28;;;7.03;100.00
12879;BME280;20617;49.476;10.986;2023-01-09T04:34:28;96627.09;;;7.06;100.00
12879;BME280;20617;49.476;10.986;2023-01-09T04:36:33;96639.97;;;7.07;100.00
12879;BME280;20617;49.476;10.986;2023-01-09T04:38:38;96637.38;;;7.07;100.00
12879;BME280;20617;49.476;10.986;2023-01-09T04:40:45;96645.22;;;7.06;100.00
12879;BME280;20617;49.476;10.986;2023-01-09T04:42:50;96652.03;;;7.07;100.00
12879;BME280;20617;49.476;10.986;2023-01-09T04:44:55;96654.91;;;7.02;100.00
12879;BME280;20617;49.476;10.986;2023-01-09T04:47:00;96661.56;;;7.06;100.00
12879;BME280;20617;49.476;10.986;2023-01-09T04:49:05;96669.09;;;7.11;100.00
12879;BME280;20617;49.476;10.986;2023-01-09T04:51:10;96665.34;;;7.16;100.00
12879;BME280;20617;49.476;10.986;2023-01-09T04:53:14;96660.06;;;7.18;100.00
12879;BME280;20617;49.476;10.986;2023-01-09T04:55:19;96661.75;;;7.19;100.00
12879;BME280;20617;49.476;10.986;2023-01-09T04:57:27;96668.41;;;7.23;100.00
12879;BME280;20617;49.476;10.986;2023-01-09T04:59:31;96667.59;;;7.22;100.00
12879;BME280;20617;49.476;10.986;2023-01-09T05:01:36;96664.66;;;7.29;100.00
12879;BME280;20617;49.476;10.986;2023-01-09T05:03:42;96662.75;;;7.32;100.00
12879;BME280;20617;49.476;10.986;2023-01-09T05:05:46;96666.91;;;7.35;100.00
12879;BME280;20617;49.476;10.986;2023-01-09T05:07:51;96654.63;;;7.38;100.00
12879;BME280;20617;49.476;10.986;2023-01-09T05:09:56;96656.97;;;7.43;100.00
12879;BME280;20617;49.476;10.986;2023-01-09T05:12:01;96668.81;;;7.47;100.00
12879;BME280;20617;49.476;10.986;2023-01-09T05:14:08;96669.41;;;7.52;100.00
12879;BME280;20617;49.476;10.986;2023-01-09T05:16:13;96664.25;;;7.52;100.00
12879;BME280;20617;49.476;10.986;2023-01-09T05:18:18;96671.84;;;7.55;100.00
12879;BME280;20617;49.476;10.986;2023-01-09T05:20:23;96677.19;;;7.52;100.00
12879;BME280;20617;49.476;10.986;2023-01-09T05:22:28;96680.72;;;7.51;100.00
12879;BME280;20617;49.476;10.986;2023-01-09T05:24:33;96689.19;;;7.53;100.00
12879;BME280;20617;49.476;10.986;2023-01-09T05:26:38;96697.72;;;7.55;100.00
12879;BME280;20617;49.476;10.986;2023-01-09T05:28:42;96702.16;;;7.53;100.00
12879;BME280;20617;49.476;10.986;2023-01-09T05:30:53;96715.78;;;7.57;100.00
12879;BME280;20617;49.476;10.986;2023-01-09T05:32:58;96713.94;;;7.59;100.00
12879;BME280;20617;49.476;10.986;2023-01-09T05:35:03;96714.50;;;7.64;100.00
12879;BME280;20617;49.476;10.986;2023-01-09T05:37:08;96717.69;;;7.69;100.00
12879;BME280;20617;49.476;10.986;2023-01-09T05:39:13;96724.47;;;7.71;100.00
12879;BME280;20617;49.476;10.986;2023-01-09T05:41:18;96719.19;;;7.73;100.00
12879;BME280;20617;49.476;10.986;2023-01-09T05:43:25;96719.00;;;7.76;100.00
12879;BME280;20617;49.476;10.986;2023-01-09T05:45:29;96724.88;;;7.80;100.00
12879;BME280;20617;49.476;10.986;2023-01-09T05:47:37;96716.25;;;7.79;100.00
12879;BME280;20617;49.476;10.986;2023-01-09T05:49:42;96730.06;;;7.80;100.00
12879;BME280;20617;49.476;10.986;2023-01-09T05:51:46;96735.31;;;7.78;100.00
12879;BME280;20617;49.476;10.986;2023-01-09T05:53:51;96745.91;;;7.74;100.00
12879;BME280;20617;49.476;10.986;2023-01-09T05:55:56;96750.38;;;7.71;100.00
12879;BME280;20617;49.476;10.986;2023-01-09T05:58:01;96748.25;;;7.78;100.00
12879;BME280;20617;49.476;10.986;2023-01-09T06:00:08;96762.16;;;7.77;100.00
12879;BME280;20617;49.476;10.986;2023-01-09T06:02:13;96772.06;;;7.85;100.00
12879;BME280;20617;49.476;10.986;2023-01-09T06:04:20;96769.66;;;7.82;100.00
12879;BME280;20617;49.476;10.986;2023-01-09T06:06:25;96771.16;;;7.86;100.00
12879;BME280;20617;49.476;10.986;2023-01-09T06:08:30;96774.94;;;7.80;100.00
12879;BME280;20617;49.476;10.986;2023-01-09T06:10:35;96774.00;;;7.81;100.00
12879;BME280;20617;49.476;10.986;2023-01-09T06:12:41;96774.66;;;7.85;100.00
12879;BME280;20617;49.476;10.986;2023-01-09T06:14:49;96780.69;;;7.85;100.00
12879;BME280;20617;49.476;10.986;2023-01-09T06:16:54;96782.28;;;7.72;100.00
12879;BME280;20617;49.476;10.986;2023-01-09T06:18:59;96792.88;;;7.67;100.00
12879;BME280;20617;49.476;10.986;2023-01-09T06:21:07;96792.53;;;7.58;100.00
12879;BME280;20617;49.476;10.986;2023-01-09T06:23:11;96801.91;;;7.60;100.00
12879;BME280;20617;49.476;10.986;2023-01-09T06:25:17;96796.47;;;7.49;100.00
12879;BME280;20617;49.476;10.986;2023-01-09T06:27:22;96791.34;;;7.47;100.00
12879;BME280;20617;49.476;10.986;2023-01-09T06:29:26;96796.38;;;7.51;100.00
12879;BME280;20617;49.476;10.986;2023-01-09T06:31:31;96793.19;;;7.45;100.00
12879;BME280;20617;49.476;10.986;2023-01-09T06:33:36;96796.03;;;7.41;100.00
12879;BME280;20617;49.476;10.986;2023-01-09T06:35:41;96814.56;;;7.33;100.00
12879;BME280;20617;49.476;10.986;2023-01-09T06:37:48;96811.28;;;7.30;100.00
12879;BME280;20617;49.476;10.986;2023-01-09T06:39:53;96827.78;;;7.27;100.00
12879;BME280;20617;49.476;10.986;2023-01-09T06:41:58;96820.78;;;7.29;100.00
12879;BME280;20617;49.476;10.986;2023-01-09T06:44:03;96830.00;;;7.35;100.00
12879;BME280;20617;49.476;10.986;2023-01-09T06:46:08;96821.41;;;7.34;100.00
12879;BME280;20617;49.476;10.986;2023-01-09T06:48:13;96825.16;;;7.29;100.00
12879;BME280;20617;49.476;10.986;2023-01-09T06:50:18;96824.47;;;7.25;100.00
12879;BME280;20617;49.476;10.986;2023-01-09T06:52:25;96827.72;;;7.29;100.00
12879;BME280;20617;49.476;10.986;2023-01-09T06:54:33;96829.72;;;7.23;100.00
12879;BME280;20617;49.476;10.986;2023-01-09T06:56:38;96836.50;;;7.26;100.00
12879;BME280;20617;49.476;10.986;2023-01-09T06:58:43;96846.22;;;7.21;100.00
12879;BME280;20617;49.476;10.986;2023-01-09T07:00:48;96837.56;;;7.22;100.00
12879;BME280;20617;49.476;10.986;2023-01-09T07:02:54;96856.75;;;7.18;100.00
12879;BME280;20617;49.476;10.986;2023-01-09T07:04:59;96839.72;;;7.14;100.00
12879;BME280;20617;49.476;10.986;2023-01-09T07:07:04;96864.00;;;7.11;100.00
12879;BME280;20617;49.476;10.986;2023-01-09T07:09:09;96858.88;;;7.10;100.00
12879;BME280;20617;49.476;10.986;2023-01-09T07:11:17;96862.91;;;6.98;100.00
12879;BME280;20617;49.476;10.986;2023-01-09T07:13:21;96858.75;;;6.95;100.00
12879;BME280;20617;49.476;10.986;2023-01-09T07:15:26;96862.34;;;6.93;100.00
12879;BME280;20617;49.476;10.986;2023-01-09T07:17:31;96863.06;;;6.95;100.00
12879;BME280;20617;49.476;10.986;2023-01-09T07:19:36;96860.34;;;6.98;100.00
12879;BME280;20617;49.476;10.986;2023-01-09T07:21:41;96864.69;;;6.97;100.00
12879;BME280;20617;49.476;10.986;2023-01-09T07:23:46;96860.44;;;6.96;100.00
12879;BME280;20617;49.476;10.986;2023-01-09T07:25:51;96866.59;;;6.94;100.00
12879;BME280;20617;49.476;10.986;2023-01-09T07:27:58;96873.41;;;6.95;100.00
12879;BME280;20617;49.476;10.986;2023-01-09T07:30:05;96865.91;;;6.90;100.00
12879;BME280;20617;49.476;10.986;2023-01-09T07:32:10;96874.66;;;6.88;100.00
12879;BME280;20617;49.476;10.986;2023-01-09T07:34:15;96878.31;;;6.84;100.00
12879;BME280;20617;49.476;10.986;2023-01-09T07:36:20;96866.59;;;6.76;100.00
12879;BME280;20617;49.476;10.986;2023-01-09T07:38:25;96869.84;;;6.80;100.00
12879;BME280;20617;49.476;10.986;2023-01-09T07:40:30;96870.69;;;6.80;100.00
12879;BME280;20617;49.476;10.986;2023-01-09T07:42:35;96872.44;;;6.80;100.00
12879;BME280;20617;49.476;10.986;2023-01-09T07:44:42;96882.47;;;6.86;100.00
12879;BME280;20617;49.476;10.986;2023-01-09T07:46:48;96879.69;;;6.91;100.00
12879;BME280;20617;49.476;10.986;2023-01-09T07:48:53;96887.22;;;6.95;100.00
12879;BME280;20617;49.476;10.986;2023-01-09T07:50:58;96884.03;;;6.90;100.00
12879;BME280;20617;49.476;10.986;2023-01-09T07:53:03;96913.00;;;6.97;100.00
12879;BME280;20617;49.476;10.986;2023-01-09T07:55:09;96912.53;;;6.89;100.00
12879;BME280;20617;49.476;10.986;2023-01-09T07:57:14;96910.72;;;6.91;100.00
12879;BME280;20617;49.476;10.986;2023-01-09T07:59:19;96908.66;;;6.97;100.00
12879;BME280;20617;49.476;10.986;2023-01-09T08:01:29;96896.94;;;7.08;100.00
12879;BME280;20617;49.476;10.986;2023-01-09T08:03:34;96902.03;;;7.09;100.00
12879;BME280;20617;49.476;10.986;2023-01-09T08:05:39;96902.88;;;7.10;100.00
12879;BME280;20617;49.476;10.986;2023-01-09T08:07:44;96907.91;;;7.13;100.00
12879;BME280;20617;49.476;10.986;2023-01-09T08:09:51;96907.06;;;7.12;100.00
12879;BME280;20617;49.476;10.986;2023-01-09T08:11:56;96904.47;;;7.12;100.00
12879;BME280;20617;49.476;10.986;2023-01-09T08:14:01;96904.03;;;7.04;100.00
12879;BME280;20617;49.476;10.986;2023-01-09T08:16:06;96917.78;;;6.87;100.00
12879;BME280;20617;49.476;10.986;2023-01-09T08:18:14;96909.13;;;6.88;100.00
12879;BME280;20617;49.476;10.986;2023-01-09T08:20:19;96903.94;;;6.88;100.00
12879;BME280;20617;49.476;10.986;2023-01-09T08:22:24;96910.25;;;7.00;100.00
12879;BME280;20617;49.476;10.986;2023-01-09T08:24:29;96916.03;;;6.88;100.00
12879;BME280;20617;49.476;10.986;2023-01-09T08:26:33;96913.16;;;6.94;100.00
12879;BME280;20617;49.476;10.986;2023-01-09T08:28:38;96910.41;;;6.97;100.00
12879;BME280;20617;49.476;10.986;2023-01-09T08:30:43;96919.09;;;6.96;100.00
12879;BME280;20617;49.476;10.986;2023-01-09T08:32:49;96941.13;;;6.86;100.00
12879;BME280;20617;49.476;10.986;2023-01-09T08:34:57;96918.84;;;6.83;100.00
12879;BME280;20617;49.476;10.986;2023-01-09T08:37:03;96918.41;;;6.75;100.00
12879;BME280;20617;49.476;10.986;2023-01-09T08:39:08;96917.00;;;6.68;100.00
12879;BME280;20617;49.476;10.986;2023-01-09T08:41:13;96923.69;;;6.72;100.00
12879;BME280;20617;49.476;10.986;2023-01-09T08:43:30;96931.44;;;6.72;100.00
12879;BME280;20617;49.476;10.986;2023-01-09T08:45:47;96937.25;;;6.77;100.00
12879;BME280;20617;49.476;10.986;2023-01-09T08:48:05;96924.56;;;6.72;100.00
12879;BME280;20617;49.476;10.986;2023-01-09T08:50:13;96933.06;;;6.74;100.00
12879;BME280;20617;49.476;10.986;2023-01-09T08:52:18;96944.09;;;6.78;100.00
12879;BME280;20617;49.476;10.986;2023-01-09T08:54:23;96956.66;;;6.86;100.00
12879;BME280;20617;49.476;10.986;2023-01-09T08:56:28;96953.72;;;6.93;100.00
12879;BME280;20617;49.476;10.986;2023-01-09T08:58:33;96953.19;;;6.87;100.00
12879;BME280;20617;49.476;10.986;2023-01-09T09:00:38;96960.41;;;6.97;100.00
12879;BME280;20617;49.476;10.986;2023-01-09T09:02:42;96957.13;;;6.94;100.00
12879;BME280;20617;49.476;10.986;2023-01-09T09:04:47;96952.72;;;6.96;100.00
12879;BME280;20617;49.476;10.986;2023-01-09T09:06:56;96955.47;;;7.10;100.00
12879;BME280;20617;49.476;10.986;2023-01-09T09:09:01;96954.41;;;7.14;100.00
12879;BME280;20617;49.476;10.986;2023-01-09T09:11:07;96956.94;;;7.16;100.00
12879;BME280;20617;49.476;10.986;2023-01-09T09:13:12;96961.72;;;7.23;100.00
12879;BME280;20617;49.476;10.986;2023-01-09T09:15:17;96970.25;;;7.25;100.00
12879;BME280;20617;49.476;10.986;2023-01-09T09:17:24;96978.78;;;7.28;100.00
12879;BME280;20617;49.476;10.986;2023-01-09T09:19:29;96977.25;;;7.41;100.00
12879;BME280;20617;49.476;10.986;2023-01-09T09:21:34;96975.28;;;7.46;100.00
12879;BME280;20617;49.476;10.986;2023-01-09T09:23:42;96979.31;;;7.52;100.00
12879;BME280;20617;49.476;10.986;2023-01-09T09:25:49;96978.69;;;7.64;100.00
12879;BME280;20617;49.476;10.986;2023-01-09T09:27:54;96988.41;;;7.76;100.00
12879;BME280;20617;49.476;10.986;2023-01-09T09:30:02;96990.09;;;7.77;100.00
12879;BME280;20617;49.476;10.986;2023-01-09T09:32:07;96987.41;;;7.79;100.00
12879;BME280;20617;49.476;10.986;2023-01-09T09:34:11;96994.19;;;7.81;100.00
12879;BME280;20617;49.476;10.986;2023-01-09T09:36:16;96996.16;;;7.93;100.00
12879;BME280;20617;49.476;10.986;2023-01-09T09:38:22;96996.25;;;7.92;100.00
12879;BME280;20617;49.476;10.986;2023-01-09T09:40:42;96991.38;;;7.86;100.00
12879;BME280;20617;49.476;10.986;2023-01-09T09:43:03;96986.00;;;8.06;100.00
12879;BME280;20617;49.476;10.986;2023-01-09T09:45:35;96992.31;;;8.18;100.00
12879;BME280;20617;49.476;10.986;2023-01-09T09:47:57;97000.91;;;8.19;100.00
12879;BME280;20617;49.476;10.986;2023-01-09T09:50:14;96996.53;;;8.03;100.00
12879;BME280;20617;49.476;10.986;2023-01-09T09:52:28;96993.41;;;7.97;100.00
12879;BME280;20617;49.476;10.986;2023-01-09T09:54:39;96982.59;;;8.06;100.00
12879;BME280;20617;49.476;10.986;2023-01-09T09:56:50;96988.81;;;8.02;100.00
12879;BME280;20617;49.476;10.986;2023-01-09T09:59:00;96976.69;;;8.02;100.00
12879;BME280;20617;49.476;10.986;2023-01-09T10:01:08;96976.91;;;8.15;100.00
12879;BME280;20617;49.476;10.986;2023-01-09T10:03:23;96988.38;;;7.93;100.00
12879;BME280;20617;49.476;10.986;2023-01-09T10:05:37;96993.34;;;7.98;100.00
12879;BME280;20617;49.476;10.986;2023-01-09T10:07:46;96989.28;;;8.10;100.00
12879;BME280;20617;49.476;10.986;2023-01-09T10:09:53;96980.56;;;8.11;100.00
12879;BME280;20617;49.476;10.986;2023-01-09T10:12:12;96989.53;;;8.21;100.00
12879;BME280;20617;49.476;10.986;2023-01-09T10:14:22;96987.00;;;8.20;100.00
12879;BME280;20617;49.476;10.986;2023-01-09T10:16:35;96980.06;;;8.04;100.00
12879;BME280;20617;49.476;10.986;2023-01-09T10:18:45;96979.13;;;8.05;100.00
12879;BME280;20617;49.476;10.986;2023-01-09T10:20:57;96981.00;;;8.19;100.00
12879;BME280;20617;49.476;10.986;2023-01-09T10:23:13;96973.31;;;8.18;100.00
12879;BME280;20617;49.476;10.986;2023-01-09T10:25:30;96977.41;;;8.22;100.00
12879;BME280;20617;49.476;10.986;2023-01-09T10:27:57;96981.34;;;8.29;100.00
12879;BME280;20617;49.476;10.986;2023-01-09T10:30:19;96988.06;;;8.33;100.00
12879;BME280;20617;49.476;10.986;2023-01-09T10:32:39;96995.53;;;8.39;100.00
12879;BME280;20617;49.476;10.986;2023-01-09T10:34:53;96990.44;;;8.53;100.00
12879;BME280;20617;49.476;10.986;2023-01-09T10:37:07;96983.91;;;8.62;100.00
12879;BME280;20617;49.476;10.986;2023-01-09T10:39:19;96984.69;;;8.64;100.00
12879;BME280;20617;49.476;10.986;2023-01-09T10:41:32;96984.25;;;8.72;100.00
12879;BME280;20617;49.476;10.986;2023-01-09T10:43:44;96984.16;;;8.73;100.00
12879;BME280;20617;49.476;10.986;2023-01-09T10:45:52;96980.31;;;8.80;100.00
12879;BME280;20617;49.476;10.986;2023-01-09T10:48:01;96970.84;;;8.79;100.00
12879;BME280;20617;49.476;10.986;2023-01-09T10:50:17;96966.66;;;8.77;100.00
12879;BME280;20617;49.476;10.986;2023-01-09T10:52:27;96971.94;;;8.75;100.00
12879;BME280;20617;49.476;10.986;2023-01-09T10:54:34;96974.34;;;8.78;100.00
12879;BME280;20617;49.476;10.986;2023-01-09T10:56:44;96977.88;;;8.77;100.00
12879;BME280;20617;49.476;10.986;2023-01-09T10:58:55;96964.66;;;8.82;100.00
12879;BME280;20617;49.476;10.986;2023-01-09T11:01:01;96965.06;;;8.74;100.00
12879;BME280;20617;49.476;10.986;2023-01-09T11:03:10;96977.72;;;8.80;100.00
12879;BME280;20617;49.476;10.986;2023-01-09T11:05:19;96971.94;;;8.75;100.00
12879;BME280;20617;49.476;10.986;2023-01-09T11:07:33;96972.34;;;8.83;100.00
12879;BME280;20617;49.476;10.986;2023-01-09T11:09:56;96966.75;;;8.75;100.00
12879;BME280;20617;49.476;10.986;2023-01-09T11:12:22;96970.44;;;8.71;100.00